Time;durP1;ratioP1;P1;durP2;ratioP2;P2;SDS_P1;SDS_P2;PMS_P1;PMS_P2;Temp;Humidity;BMP_temperature;BMP_pressure;BME280_temperature;BME280_humidity;BME280_pressure;Samples;Min_cycle;Max_cycle;Signal;HPM_P1;HPM_P2
2023/05/26 00:00:18;;;;;;;22.27;5.60;;;12.70;99.90;;;;;;5075162;28;20170;-48
2023/05/26 00:02:45;;;;;;;18.30;5.60;;;12.70;99.90;;;;;;5074739;28;20176;-48
2023/05/26 00:05:11;;;;;;;19.63;5.80;;;;;;;;;;5074788;28;20178;-50
2023/05/26 00:07:41;;;;;;;22.42;5.78;;;12.40;99.90;;;;;;5074852;28;20213;-51
2023/05/26 00:10:07;;;;;;;23.83;6.05;;;12.70;99.90;;;;;;5075106;28;20650;-49
2023/05/26 00:12:33;;;;;;;19.20;5.38;;;12.60;99.90;;;;;;5073412;28;20165;-50
2023/05/26 00:14:59;;;;;;;15.35;6.05;;;;;;;;;;5074856;28;20181;-49
2023/05/26 00:17:25;;;;;;;25.13;5.90;;;12.60;99.90;;;;;;5074498;28;20205;-50
2023/05/26 00:19:52;;;;;;;24.77;6.63;;;12.50;99.90;;;;;;5074558;28;20178;-49
2023/05/26 00:22:18;;;;;;;23.48;5.80;;;12.50;99.90;;;;;;5074390;28;20562;-50
2023/05/26 00:24:44;;;;;;;23.88;5.72;;;12.60;99.90;;;;;;5074398;28;20665;-50
2023/05/26 00:27:10;;;;;;;25.35;6.88;;;12.40;99.90;;;;;;5074293;28;20639;-49
2023/05/26 00:29:37;;;;;;;19.60;5.90;;;12.20;99.90;;;;;;5074705;28;20184;-49
2023/05/26 00:32:05;;;;;;;21.40;5.85;;;12.50;99.90;;;;;;5074536;28;20173;-49
2023/05/26 00:34:34;;;;;;;22.00;5.95;;;12.30;99.90;;;;;;5074195;28;20188;-48
2023/05/26 00:37:01;;;;;;;20.80;6.00;;;12.40;99.90;;;;;;5074543;28;20596;-50
2023/05/26 00:39:27;;;;;;;15.90;4.82;;;12.40;99.90;;;;;;5074309;28;20212;-49
2023/05/26 00:41:53;;;;;;;16.73;5.65;;;12.20;99.90;;;;;;5074035;28;20166;-48
2023/05/26 00:44:18;;;;;;;25.80;6.35;;;12.20;99.90;;;;;;5074102;28;20212;-49
2023/05/26 00:46:44;;;;;;;22.73;5.97;;;12.30;99.90;;;;;;5074007;28;20166;-49
2023/05/26 00:49:10;;;;;;;19.95;6.10;;;;;;;;;;5074037;28;20563;-48
2023/05/26 00:51:36;;;;;;;22.70;6.00;;;12.30;99.90;;;;;;5074433;28;20201;-50
2023/05/26 00:54:01;;;;;;;25.73;5.35;;;12.30;99.90;;;;;;5073831;28;20525;-49
2023/05/26 00:56:28;;;;;;;14.00;5.40;;;12.20;99.90;;;;;;5073773;28;20185;-48
2023/05/26 00:58:55;;;;;;;18.75;5.57;;;12.30;99.90;;;;;;5073584;28;20767;-48
2023/05/26 01:01:21;;;;;;;21.45;5.15;;;12.30;99.90;;;;;;5072447;28;20265;-48
2023/05/26 01:03:47;;;;;;;17.77;5.80;;;12.10;99.90;;;;;;5072657;28;20578;-49
2023/05/26 01:06:13;;;;;;;25.42;6.82;;;12.20;99.90;;;;;;5073514;28;20213;-48
2023/05/26 01:08:39;;;;;;;28.90;5.82;;;12.30;99.90;;;;;;5074015;28;20306;-48
2023/05/26 01:11:09;;;;;;;19.02;6.15;;;;;;;;;;5074029;28;20162;-50
2023/05/26 01:13:49;;;;;;;21.55;5.13;;;12.10;99.90;;;;;;5073944;28;20162;-48
2023/05/26 01:16:17;;;;;;;22.15;5.78;;;12.10;99.90;;;;;;5073647;28;20174;-49
2023/05/26 01:18:52;;;;;;;20.65;5.78;;;12.10;99.90;;;;;;5073412;28;20541;-50
2023/05/26 01:21:21;;;;;;;22.65;6.22;;;12.10;99.90;;;;;;5073457;28;20161;-50
2023/05/26 01:23:58;;;;;;;20.55;5.47;;;12.10;99.90;;;;;;5073214;28;20253;-49
2023/05/26 01:26:46;;;;;;;16.23;5.97;;;12.00;99.90;;;;;;5073289;28;20249;-49
2023/05/26 01:29:15;;;;;;;26.13;6.95;;;11.90;99.90;;;;;;5065863;28;20186;-49
2023/05/26 01:31:41;;;;;;;20.55;5.72;;;11.80;99.90;;;;;;5073214;28;20165;-48
2023/05/26 01:34:07;;;;;;;27.35;6.07;;;11.90;99.90;;;;;;5073469;28;20162;-49
2023/05/26 01:36:35;;;;;;;21.98;5.55;;;11.90;99.90;;;;;;5073203;28;20170;-49
2023/05/26 01:39:01;;;;;;;24.52;5.93;;;;;;;;;;5073150;28;20263;-49
2023/05/26 01:41:49;;;;;;;18.33;5.13;;;11.80;99.90;;;;;;5073224;28;20165;-49
2023/05/26 01:44:23;;;;;;;26.30;6.75;;;11.80;99.90;;;;;;5072940;28;20204;-48
2023/05/26 01:46:50;;;;;;;18.05;5.70;;;11.80;99.90;;;;;;5073076;28;20539;-48
2023/05/26 01:49:18;;;;;;;21.67;5.72;;;11.80;99.90;;;;;;5073079;28;20158;-49
2023/05/26 01:51:49;;;;;;;24.95;5.97;;;11.50;99.90;;;;;;5072365;28;20251;-50
2023/05/26 01:54:18;;;;;;;23.85;6.15;;;11.70;99.90;;;;;;5072738;28;20170;-49
2023/05/26 01:56:45;;;;;;;18.67;5.65;;;11.60;99.90;;;;;;5072629;28;20709;-49
2023/05/26 01:59:12;;;;;;;23.30;6.25;;;11.60;99.90;;;;;;5072716;28;20218;-48
2023/05/26 02:01:38;;;;;;;23.60;6.50;;;11.50;99.90;;;;;;5072981;28;20237;-49
2023/05/26 02:04:04;;;;;;;25.95;6.07;;;;;;;;;;5072519;28;20201;-48
2023/05/26 02:06:30;;;;;;;22.40;6.15;;;11.50;99.90;;;;;;5072434;28;20245;-48
2023/05/26 02:08:56;;;;;;;18.25;5.55;;;;;;;;;;5072333;28;20571;-48
2023/05/26 02:11:21;;;;;;;25.45;5.97;;;11.50;99.90;;;;;;5072374;28;20216;-48
2023/05/26 02:13:48;;;;;;;28.17;6.75;;;11.50;99.90;;;;;;5072169;28;20166;-48
2023/05/26 02:16:14;;;;;;;21.35;5.95;;;;;;;;;;5072230;28;20634;-48
2023/05/26 02:18:40;;;;;;;23.65;5.45;;;11.50;99.90;;;;;;5072426;28;20201;-48
2023/05/26 02:21:06;;;;;;;20.30;5.35;;;11.40;99.90;;;;;;5072516;28;20174;-48
2023/05/26 02:23:31;;;;;;;23.83;5.88;;;11.40;99.90;;;;;;5072237;28;20634;-48
2023/05/26 02:25:57;;;;;;;24.63;5.70;;;11.40;99.90;;;;;;5072117;28;20177;-48
2023/05/26 02:28:22;;;;;;;25.73;5.85;;;11.30;99.90;;;;;;5072110;28;20170;-48
2023/05/26 02:30:48;;;;;;;20.63;5.88;;;11.40;99.90;;;;;;5072056;28;20170;-48
2023/05/26 02:33:13;;;;;;;17.48;5.47;;;11.30;99.90;;;;;;5071958;28;20173;-48
2023/05/26 02:35:39;;;;;;;22.23;7.07;;;11.40;99.90;;;;;;5071917;28;20248;-48
2023/05/26 02:38:04;;;;;;;20.75;5.18;;;11.30;99.90;;;;;;5072459;28;20194;-48
2023/05/26 02:40:30;;;;;;;21.75;5.63;;;11.30;99.90;;;;;;5072111;28;20174;-48
2023/05/26 02:42:56;;;;;;;21.90;5.85;;;11.30;99.90;;;;;;5071865;28;20158;-48
2023/05/26 02:45:21;;;;;;;23.63;6.38;;;11.10;99.90;;;;;;5072096;28;20654;-48
2023/05/26 02:47:47;;;;;;;22.92;6.28;;;11.40;99.90;;;;;;5071745;28;20166;-48
2023/05/26 02:50:13;;;;;;;20.85;5.88;;;11.10;99.90;;;;;;5071919;28;20533;-49
2023/05/26 02:52:39;;;;;;;24.00;5.75;;;;;;;;;;5072139;28;20166;-48
2023/05/26 02:55:05;;;;;;;24.13;5.88;;;10.90;99.90;;;;;;5072158;28;20170;-48
2023/05/26 02:57:30;;;;;;;21.80;6.18;;;11.40;99.90;;;;;;5071551;28;20158;-48
2023/05/26 02:59:56;;;;;;;19.10;5.78;;;11.00;99.90;;;;;;5071597;28;20654;-48
2023/05/26 03:02:21;;;;;;;22.88;5.45;;;11.00;99.90;;;;;;5071601;28;20631;-48
2023/05/26 03:04:47;;;;;;;22.73;5.75;;;10.70;99.90;;;;;;5071558;28;20202;-48
2023/05/26 03:07:12;;;;;;;18.50;5.00;;;10.90;99.90;;;;;;5071556;28;20687;-48
2023/05/26 03:09:39;;;;;;;28.23;5.70;;;;;;;;;;5072071;28;20170;-48
2023/05/26 03:12:06;;;;;;;17.73;4.93;;;;;;;;;;5072172;28;20543;-48
2023/05/26 03:14:33;;;;;;;21.27;5.25;;;10.80;99.90;;;;;;5071505;28;20166;-48
2023/05/26 03:17:00;;;;;;;19.23;5.18;;;10.80;99.90;;;;;;5071430;28;20165;-49
2023/05/26 03:19:25;;;;;;;22.45;4.80;;;10.80;99.90;;;;;;5071198;28;20237;-48
2023/05/26 03:21:51;;;;;;;19.05;5.45;;;10.90;99.90;;;;;;5071346;28;20212;-48
2023/05/26 03:24:17;;;;;;;16.27;5.13;;;10.70;99.90;;;;;;5071576;28;20572;-49
2023/05/26 03:26:43;;;;;;;23.95;5.55;;;10.70;99.90;;;;;;5075795;28;20174;-48
2023/05/26 03:29:09;;;;;;;24.08;5.40;;;10.60;99.90;;;;;;5078018;28;20227;-48
2023/05/26 03:31:35;;;;;;;24.90;6.00;;;10.70;99.90;;;;;;5078406;28;20510;-48
2023/05/26 03:34:01;;;;;;;21.02;5.25;;;;;;;;;;5077947;28;20201;-49
2023/05/26 03:36:26;;;;;;;25.88;6.18;;;10.60;99.90;;;;;;5078162;28;20162;-48
2023/05/26 03:38:52;;;;;;;22.52;6.00;;;10.60;99.90;;;;;;5078018;28;20237;-48
2023/05/26 03:41:18;;;;;;;15.10;4.90;;;10.60;99.90;;;;;;5078019;28;20168;-50
2023/05/26 03:43:43;;;;;;;18.90;5.20;;;10.30;99.90;;;;;;5077889;28;20506;-48
2023/05/26 03:46:09;;;;;;;24.63;5.50;;;10.50;99.90;;;;;;5078100;28;20189;-48
2023/05/26 03:48:34;;;;;;;19.60;5.00;;;;;;;;;;5078215;28;20234;-48
2023/05/26 03:51:00;;;;;;;19.15;5.40;;;10.40;99.90;;;;;;5077796;28;20296;-48
2023/05/26 03:53:26;;;;;;;24.70;5.72;;;10.40;99.90;;;;;;5077678;28;20173;-48
2023/05/26 03:55:52;;;;;;;28.40;6.00;;;10.50;99.90;;;;;;5077755;28;20248;-50
2023/05/26 03:58:18;;;;;;;21.88;5.10;;;;;;;;;;5077727;28;20681;-51
2023/05/26 04:00:43;;;;;;;22.58;4.97;;;10.50;99.90;;;;;;5077770;28;20544;-51
2023/05/26 04:03:09;;;;;;;15.63;4.78;;;10.60;99.90;;;;;;5077742;28;20162;-50
2023/05/26 04:05:34;;;;;;;21.85;4.57;;;10.30;99.90;;;;;;5078287;28;20706;-50
2023/05/26 04:08:00;;;;;;;22.70;5.07;;;10.60;99.90;;;;;;5077564;28;20210;-50
2023/05/26 04:10:25;;;;;;;26.42;5.03;;;10.60;99.90;;;;;;5077572;28;20170;-50
2023/05/26 04:12:51;;;;;;;25.15;4.75;;;10.70;99.90;;;;;;5077447;28;20252;-51
2023/05/26 04:15:16;;;;;;;17.83;4.70;;;10.70;99.90;;;;;;5077643;28;20196;-51
2023/05/26 04:17:42;;;;;;;19.27;5.75;;;10.80;99.90;;;;;;5077485;28;20177;-50
2023/05/26 04:20:11;;;;;;;26.05;5.22;;;10.70;99.90;;;;;;5077806;28;20227;-51
2023/05/26 04:22:40;;;;;;;20.67;4.93;;;10.70;99.90;;;;;;5078137;28;20204;-49
2023/05/26 04:25:07;;;;;;;21.52;5.18;;;10.70;99.90;;;;;;5076544;28;20704;-50
2023/05/26 04:27:35;;;;;;;21.55;6.18;;;10.60;99.90;;;;;;5077665;28;20174;-51
2023/05/26 04:30:02;;;;;;;22.85;6.32;;;10.50;99.90;;;;;;5077363;28;20189;-51
2023/05/26 04:32:28;;;;;;;22.85;5.88;;;;;;;;;;5077282;28;20162;-50
2023/05/26 04:34:55;;;;;;;27.25;7.07;;;10.90;99.90;;;;;;5077356;28;20178;-51
2023/05/26 04:37:21;;;;;;;22.48;7.78;;;10.80;99.90;;;;;;5076398;28;20534;-50
2023/05/26 04:39:47;;;;;;;24.05;7.68;;;11.00;99.90;;;;;;5074085;28;20206;-50
2023/05/26 04:42:12;;;;;;;27.80;7.90;;;11.00;99.90;;;;;;5074088;28;20162;-51
2023/05/26 04:44:40;;;;;;;21.17;6.95;;;;;;;;;;5073897;28;20166;-48
2023/05/26 04:47:08;;;;;;;25.17;7.53;;;11.10;99.90;;;;;;5074642;28;20182;-49
2023/05/26 04:49:37;;;;;;;25.17;5.97;;;11.20;99.90;;;;;;5074239;28;20537;-51
2023/05/26 04:52:04;;;;;;;21.60;6.88;;;11.30;99.90;;;;;;5074456;28;20166;-49
2023/05/26 04:54:30;;;;;;;24.33;6.75;;;11.30;99.90;;;;;;5074154;28;20292;-48
2023/05/26 04:56:56;;;;;;;25.98;7.63;;;11.50;99.90;;;;;;5074060;28;20264;-48
2023/05/26 04:59:23;;;;;;;19.77;7.10;;;11.40;99.90;;;;;;5073690;28;20288;-48
2023/05/26 05:01:49;;;;;;;28.65;7.63;;;;;;;;;;5073827;28;20169;-49
2023/05/26 05:04:15;;;;;;;23.00;6.55;;;11.80;99.90;;;;;;5073942;28;20234;-48
2023/05/26 05:06:41;;;;;;;36.90;7.35;;;11.70;99.90;;;;;;5073580;28;20221;-48
2023/05/26 05:09:07;;;;;;;23.90;8.10;;;11.90;99.90;;;;;;5074037;28;20174;-48
2023/05/26 05:11:33;;;;;;;25.95;7.88;;;11.70;99.90;;;;;;5073958;28;20530;-51
2023/05/26 05:13:59;;;;;;;30.17;7.93;;;11.90;99.90;;;;;;5073463;28;20183;-49
2023/05/26 05:16:25;;;;;;;25.27;7.50;;;11.90;99.90;;;;;;5073745;28;20166;-50
2023/05/26 05:18:50;;;;;;;27.83;7.40;;;11.80;99.90;;;;;;5073207;28;20197;-49
2023/05/26 05:21:16;;;;;;;20.70;7.57;;;11.70;99.90;;;;;;5073436;28;20182;-49
2023/05/26 05:23:42;;;;;;;28.35;9.18;;;11.80;99.90;;;;;;5073385;28;20560;-50
2023/05/26 05:26:08;;;;;;;28.40;9.05;;;;;;;;;;5073578;28;20178;-48
2023/05/26 05:28:33;;;;;;;29.15;9.75;;;12.00;99.90;;;;;;5072367;28;20649;-51
2023/05/26 05:30:59;;;;;;;23.70;9.02;;;12.20;99.90;;;;;;5073237;28;20162;-51
2023/05/26 05:33:25;;;;;;;31.15;10.25;;;12.10;99.90;;;;;;5073099;28;20170;-51
2023/05/26 05:35:51;;;;;;;27.90;10.60;;;11.80;99.90;;;;;;5073251;28;20177;-51
2023/05/26 05:38:16;;;;;;;25.05;9.80;;;12.10;99.90;;;;;;5072917;28;20693;-51
2023/05/26 05:40:42;;;;;;;28.80;9.45;;;11.80;99.90;;;;;;5072925;28;20584;-51
2023/05/26 05:43:08;;;;;;;33.53;11.35;;;11.90;99.90;;;;;;5072893;28;20169;-50
2023/05/26 05:45:33;;;;;;;25.67;11.05;;;11.90;99.90;;;;;;5073294;28;20170;-51
2023/05/26 05:47:59;;;;;;;23.98;11.27;;;12.00;99.90;;;;;;5072812;28;20193;-51
2023/05/26 05:50:25;;;;;;;34.05;12.32;;;;;;;;;;5072540;28;20204;-51
2023/05/26 05:52:50;;;;;;;32.75;12.52;;;12.10;99.90;;;;;;5072672;28;20170;-51
2023/05/26 05:55:16;;;;;;;31.63;11.82;;;;;;;;;;5070693;28;20178;-51
2023/05/26 05:57:42;;;;;;;33.88;13.48;;;;;;;;;;5070814;28;20166;-54
2023/05/26 06:00:09;;;;;;;28.90;13.43;;;12.00;99.90;;;;;;5070767;28;20174;-51
2023/05/26 06:02:35;;;;;;;38.72;13.60;;;12.30;99.90;;;;;;5071214;28;20181;-55
2023/05/26 06:05:02;;;;;;;29.58;13.30;;;;;;;;;;5070692;28;20627;-53
2023/05/26 06:07:28;;;;;;;40.20;15.55;;;;;;;;;;5069034;28;20304;-54
2023/05/26 06:09:54;;;;;;;37.17;15.50;;;;;;;;;;5070648;28;20173;-52
2023/05/26 06:12:20;;;;;;;32.83;16.05;;;;;;;;;;5069275;28;20243;-52
2023/05/26 06:14:45;;;;;;;29.42;14.52;;;13.00;99.90;;;;;;5070502;28;20166;-53
2023/05/26 06:17:11;;;;;;;37.80;15.85;;;;;;;;;;5070546;28;20178;-50
2023/05/26 06:19:38;;;;;;;36.97;15.85;;;13.00;99.90;;;;;;5070166;28;20282;-56
2023/05/26 06:22:04;;;;;;;37.60;17.60;;;;;;;;;;5070890;28;20170;-50
2023/05/26 06:24:30;;;;;;;35.70;16.05;;;;;;;;;;5068981;28;20269;-56
2023/05/26 06:26:56;;;;;;;38.83;16.88;;;;;;;;;;5070352;28;20555;-49
2023/05/26 06:29:22;;;;;;;37.45;15.98;;;13.10;99.90;;;;;;5070197;28;20541;-54
2023/05/26 06:31:48;;;;;;;36.80;15.98;;;;;;;;;;5070172;28;20228;-50
2023/05/26 06:34:13;;;;;;;44.88;16.90;;;13.40;99.90;;;;;;5070514;28;20260;-54
2023/05/26 06:36:39;;;;;;;35.50;17.15;;;13.40;99.90;;;;;;5070002;28;20258;-54
2023/05/26 06:39:05;;;;;;;35.42;14.88;;;;;;;;;;5070229;28;20206;-53
2023/05/26 06:41:31;;;;;;;34.13;15.05;;;13.50;99.90;;;;;;5070323;28;20166;-54
2023/05/26 06:43:56;;;;;;;31.98;13.82;;;13.50;99.90;;;;;;5070018;28;20178;-55
2023/05/26 06:46:22;;;;;;;40.85;12.93;;;13.50;99.90;;;;;;5069857;28;20245;-54
2023/05/26 06:48:47;;;;;;;33.58;12.52;;;13.40;99.90;;;;;;5069882;28;20178;-53
2023/05/26 06:51:13;;;;;;;37.05;14.18;;;13.30;99.90;;;;;;5069785;28;20245;-55
2023/05/26 06:53:39;;;;;;;31.45;13.02;;;;;;;;;;5069822;28;20263;-54
2023/05/26 06:56:05;;;;;;;34.75;13.52;;;13.10;99.90;;;;;;5070610;28;20162;-49
2023/05/26 06:58:31;;;;;;;32.75;13.60;;;13.50;99.90;;;;;;5069824;28;20197;-47
2023/05/26 07:01:01;;;;;;;26.33;12.25;;;;;;;;;;5069089;28;20176;-48
2023/05/26 07:03:28;;;;;;;31.10;12.32;;;13.60;99.90;;;;;;5069650;28;20170;-50
2023/05/26 07:05:54;;;;;;;32.78;12.68;;;13.60;99.90;;;;;;5069553;28;20256;-49
2023/05/26 07:08:20;;;;;;;29.10;12.70;;;14.00;99.90;;;;;;5069928;28;20261;-53
2023/05/26 07:10:46;;;;;;;28.85;12.15;;;13.90;99.90;;;;;;5069479;28;20260;-53
2023/05/26 07:13:12;;;;;;;28.58;12.32;;;;;;;;;;5069706;28;20182;-48
2023/05/26 07:15:37;;;;;;;29.58;12.95;;;13.90;99.90;;;;;;5069767;28;20170;-49
2023/05/26 07:18:03;;;;;;;29.98;11.77;;;;;;;;;;5069803;28;20197;-52
2023/05/26 07:20:29;;;;;;;37.78;13.88;;;13.70;99.90;;;;;;5069536;28;20180;-53
2023/05/26 07:22:55;;;;;;;34.92;14.77;;;13.60;99.90;;;;;;5069461;28;20165;-53
2023/05/26 07:25:20;;;;;;;32.20;12.93;;;13.60;99.90;;;;;;5069450;28;20523;-53
2023/05/26 07:27:46;;;;;;;33.30;13.65;;;13.90;99.90;;;;;;5069651;28;20203;-52
2023/05/26 07:30:11;;;;;;;27.73;12.15;;;14.10;99.90;;;;;;5069706;28;20169;-54
2023/05/26 07:32:37;;;;;;;30.90;13.32;;;;;;;;;;5069323;28;20229;-54
2023/05/26 07:35:04;;;;;;;34.65;12.23;;;;;;;;;;5070148;28;20261;-55
2023/05/26 07:37:29;;;;;;;35.33;14.15;;;14.20;99.90;;;;;;5069615;28;20174;-54
2023/05/26 07:39:55;;;;;;;32.75;13.48;;;14.20;99.90;;;;;;5067924;28;20201;-54
2023/05/26 07:42:21;;;;;;;30.88;14.35;;;14.30;99.90;;;;;;5069446;28;20178;-53
2023/05/26 07:44:47;;;;;;;35.70;13.82;;;;;;;;;;5069633;28;20242;-49
2023/05/26 07:47:13;;;;;;;17.92;9.85;;;;;;;;;;5069314;28;20249;-48
2023/05/26 07:49:39;;;;;;;25.17;11.02;;;14.10;99.90;;;;;;5069257;28;20171;-47
2023/05/26 07:52:04;;;;;;;32.05;15.90;;;14.30;99.90;;;;;;5069635;28;20245;-49
2023/05/26 07:54:30;;;;;;;29.65;15.02;;;14.60;99.90;;;;;;5069047;28;20158;-53
2023/05/26 07:56:56;;;;;;;29.38;14.52;;;14.80;99.90;;;;;;5069368;28;20444;-54
2023/05/26 07:59:21;;;;;;;32.85;15.02;;;;;;;;;;5068996;28;20368;-54
2023/05/26 08:01:47;;;;;;;26.90;15.40;;;;;;;;;;5069152;28;20202;-53
2023/05/26 08:04:13;;;;;;;35.47;15.35;;;14.90;99.90;;;;;;5068571;28;20181;-50
2023/05/26 08:06:39;;;;;;;35.28;15.60;;;15.00;99.90;;;;;;5068978;28;20241;-55
2023/05/26 08:09:05;;;;;;;32.03;16.38;;;15.20;99.90;;;;;;5069739;28;20265;-50
2023/05/26 08:11:31;;;;;;;33.13;16.67;;;;;;;;;;5068773;28;20296;-51
2023/05/26 08:13:58;;;;;;;32.05;15.85;;;;;;;;;;5072676;28;20185;-53
2023/05/26 08:16:24;;;;;;;41.90;17.05;;;;;;;;;;5072778;28;20250;-52
2023/05/26 08:18:50;;;;;;;29.90;16.98;;;;;;;;;;5072672;28;20241;-51
2023/05/26 08:21:16;;;;;;;36.30;16.30;;;;;;;;;;5072701;28;20170;-51
2023/05/26 08:23:42;;;;;;;36.40;16.80;;;15.30;99.90;;;;;;5072794;28;20170;-54
2023/05/26 08:26:08;;;;;;;29.85;16.98;;;15.40;99.90;;;;;;5072457;28;20691;-54
2023/05/26 08:28:34;;;;;;;40.83;19.38;;;15.60;99.90;;;;;;5072754;28;20259;-53
2023/05/26 08:31:00;;;;;;;36.83;18.08;;;;;;;;;;5072515;28;20530;-49
2023/05/26 08:33:26;;;;;;;36.78;18.02;;;;;;;;;;5072426;28;20162;-53
2023/05/26 08:35:51;;;;;;;32.83;17.42;;;16.10;99.90;;;;;;5072295;28;20232;-52
2023/05/26 08:38:17;;;;;;;32.08;16.48;;;16.20;99.90;;;;;;5072493;28;20201;-52
2023/05/26 08:40:43;;;;;;;31.45;16.70;;;;;;;;;;5072349;28;20650;-53
2023/05/26 08:43:14;;;;;;;32.88;16.73;;;16.40;99.90;;;;;;5072180;28;20189;-50
2023/05/26 08:45:42;;;;;;;39.25;17.40;;;16.50;99.90;;;;;;5072240;28;20208;-53
2023/05/26 08:48:10;;;;;;;35.17;18.08;;;16.20;99.90;;;;;;5072117;28;20184;-51
2023/05/26 08:50:36;;;;;;;29.63;16.40;;;;;;;;;;5072688;28;20166;-52
2023/05/26 08:53:04;;;;;;;33.40;18.52;;;16.30;99.90;;;;;;5072688;28;20196;-52
2023/05/26 08:55:33;;;;;;;34.67;18.00;;;16.40;99.90;;;;;;5071922;28;20200;-51
2023/05/26 08:58:00;;;;;;;36.95;16.95;;;16.80;99.90;;;;;;5072112;28;20178;-51
2023/05/26 09:00:30;;;;;;;29.10;16.13;;;;;;;;;;5071968;28;20202;-53
2023/05/26 09:03:01;;;;;;;32.85;17.13;;;16.70;99.90;;;;;;5072124;28;20174;-54
2023/05/26 09:05:29;;;;;;;24.20;14.05;;;;;;;;;;5071215;28;20180;-53
2023/05/26 09:07:55;;;;;;;33.38;16.80;;;16.60;99.90;;;;;;5071399;28;20209;-54
2023/05/26 09:10:20;;;;;;;30.27;14.85;;;16.00;99.90;;;;;;5071934;28;20637;-47
2023/05/26 09:12:47;;;;;;;29.00;16.45;;;;;;;;;;5071696;28;20657;-53
2023/05/26 09:15:16;;;;;;;33.58;14.23;;;15.90;99.90;;;;;;5071885;28;20452;-54
2023/05/26 09:17:42;;;;;;;28.42;14.10;;;16.20;99.90;;;;;;5071556;28;20198;-52
2023/05/26 09:20:08;;;;;;;31.42;15.80;;;16.80;99.90;;;;;;5071491;28;20629;-49
2023/05/26 09:22:34;;;;;;;33.83;16.13;;;16.70;99.90;;;;;;5071875;28;20158;-52
2023/05/26 09:25:00;;;;;;;27.73;14.07;;;;;;;;;;5071026;28;20590;-53
2023/05/26 09:27:26;;;;;;;29.13;14.73;;;;;;;;;;5071756;28;20166;-52
2023/05/26 09:29:54;;;;;;;24.58;14.88;;;17.20;99.90;;;;;;5071717;28;20181;-49
2023/05/26 09:32:27;;;;;;;27.48;14.05;;;17.40;99.90;;;;;;5071228;28;20642;-47
2023/05/26 09:34:55;;;;;;;27.85;13.20;;;;;;;;;;5070371;28;20170;-53
2023/05/26 09:37:28;;;;;;;30.60;14.38;;;;;;;;;;5071175;28;20223;-57
2023/05/26 09:39:54;;;;;;;25.98;13.32;;;;;;;;;;5071315;28;20213;-45
2023/05/26 09:42:20;;;;;;;24.23;13.35;;;;;;;;;;5071201;28;20502;-44
2023/05/26 09:44:50;;;;;;;29.77;13.80;;;;;;;;;;5071288;28;20205;-59
2023/05/26 09:47:20;;;;;;;29.80;16.25;;;17.70;99.90;;;;;;5071263;28;20265;-54
2023/05/26 09:49:46;;;;;;;25.92;14.27;;;17.50;99.90;;;;;;5071060;28;20162;-54
2023/05/26 09:52:12;;;;;;;31.35;14.27;;;;;;;;;;5070909;28;20181;-66
2023/05/26 09:54:38;;;;;;;33.65;14.95;;;;;;;;;;5070937;28;20162;-45
2023/05/26 09:57:05;;;;;;;29.08;13.05;;;18.00;99.90;;;;;;5071189;28;20533;-55
2023/05/26 09:59:38;;;;;;;25.63;12.73;;;18.30;99.90;;;;;;5070103;28;20304;-51
2023/05/26 10:02:24;;;;;;;27.80;12.88;;;18.00;99.90;;;;;;5071505;28;20243;-47
2023/05/26 10:04:51;;;;;;;27.60;12.55;;;;;;;;;;5070675;28;20168;-49
2023/05/26 10:07:21;;;;;;;26.63;12.50;;;;;;;;;;5069167;28;20286;-48
2023/05/26 10:09:57;;;;;;;30.15;12.27;;;;;;;;;;5070768;28;20169;-47
2023/05/26 10:12:27;;;;;;;28.67;12.35;;;;;;;;;;5070485;28;20675;-47
2023/05/26 10:14:53;;;;;;;23.45;11.65;;;18.40;99.90;;;;;;5070632;28;20170;-49
2023/05/26 10:17:23;;;;;;;22.05;11.48;;;18.50;99.90;;;;;;5070544;28;20166;-48
2023/05/26 10:19:49;;;;;;;26.80;11.20;;;;;;;;;;5070176;28;20218;-48
2023/05/26 10:22:27;;;;;;;30.23;11.73;;;;;;;;;;5070301;28;20162;-49
2023/05/26 10:25:12;;;;;;;25.90;10.98;;;18.60;99.90;;;;;;5070113;28;20710;-48
2023/05/26 10:27:47;;;;;;;31.13;11.38;;;18.50;99.90;;;;;;5062895;28;20185;-52
2023/05/26 10:30:16;;;;;;;29.75;10.50;;;18.50;99.90;;;;;;5070203;28;20239;-48
2023/05/26 10:32:42;;;;;;;16.75;7.43;;;;;;;;;;5070303;28;20256;-47
2023/05/26 10:35:27;;;;;;;23.70;9.15;;;;;;;;;;5069986;28;20170;-47
2023/05/26 10:38:02;;;;;;;29.52;9.85;;;18.60;99.90;;;;;;5070503;28;20189;-47
2023/05/26 10:40:33;;;;;;;19.85;9.15;;;18.90;99.90;;;;;;5069997;28;20173;-47
2023/05/26 10:43:20;;;;;;;25.60;9.35;;;;;;;;;;5070073;28;20169;-46
2023/05/26 10:45:51;;;;;;;23.38;10.18;;;19.30;99.90;;;;;;5070196;28;20207;-47
2023/05/26 10:48:17;;;;;;;21.95;8.50;;;19.20;99.90;;;;;;5070008;28;20170;-47
2023/05/26 10:51:04;;;;;;;18.05;8.85;;;;;;;;;;5070042;28;20178;-47
2023/05/26 10:53:31;;;;;;;20.30;7.50;;;19.00;99.90;;;;;;5070211;28;20158;-47
2023/05/26 10:55:59;;;;;;;29.70;10.02;;;19.20;99.90;;;;;;5069873;28;20188;-47
2023/05/26 10:58:28;;;;;;;16.35;7.40;;;;;;;;;;5069807;28;20202;-50
2023/05/26 11:00:55;;;;;;;27.85;8.48;;;19.00;99.90;;;;;;5069593;28;20507;-49
2023/05/26 11:03:43;;;;;;;20.27;8.05;;;19.20;99.90;;;;;;5070050;28;20173;-46
2023/05/26 11:06:12;;;;;;;21.42;7.88;;;19.50;99.90;;;;;;5069711;28;20217;-47
2023/05/26 11:08:45;;;;;;;24.17;8.20;;;;;;;;;;5069574;28;20190;-47
2023/05/26 11:11:12;;;;;;;28.65;8.18;;;19.50;99.90;;;;;;5069716;28;20170;-47
2023/05/26 11:13:43;;;;;;;20.60;7.30;;;19.50;99.90;;;;;;5069873;28;20165;-47
2023/05/26 11:16:16;;;;;;;25.17;8.25;;;19.30;99.90;;;;;;5069607;28;20158;-47
2023/05/26 11:18:50;;;;;;;27.60;8.52;;;19.80;99.90;;;;;;5069362;28;20264;-47
2023/05/26 11:21:18;;;;;;;20.05;8.18;;;19.70;99.90;;;;;;5068223;28;20162;-47
2023/05/26 11:23:47;;;;;;;22.20;9.13;;;19.60;99.90;;;;;;5069695;28;20650;-48
2023/05/26 11:26:14;;;;;;;19.08;7.47;;;;;;;;;;5069462;28;20294;-47
2023/05/26 11:28:41;;;;;;;22.73;8.38;;;20.10;99.90;;;;;;5069393;28;20162;-48
2023/05/26 11:31:14;;;;;;;23.35;6.70;;;20.00;99.90;;;;;;5069837;28;20225;-51
2023/05/26 11:33:41;;;;;;;19.98;8.30;;;20.00;99.90;;;;;;5069390;28;20162;-52
2023/05/26 11:36:12;;;;;;;18.35;7.32;;;20.20;99.90;;;;;;5069579;28;20173;-51
2023/05/26 11:38:38;;;;;;;24.67;8.80;;;19.80;99.90;;;;;;5069115;28;20243;-49
2023/05/26 11:41:08;;;;;;;20.35;7.78;;;;;;;;;;5068577;28;20604;-52
2023/05/26 11:43:38;;;;;;;24.88;8.10;;;19.90;99.90;;;;;;5070048;28;20228;-52
2023/05/26 11:46:05;;;;;;;18.83;7.28;;;;;;;;;;5069570;28;20221;-51
2023/05/26 11:48:36;;;;;;;18.33;7.35;;;;;;;;;;5072826;28;20542;-50
2023/05/26 11:51:12;;;;;;;25.75;11.27;;;;;;;;;;5073940;28;20162;-50
2023/05/26 11:53:39;;;;;;;17.88;7.00;;;20.40;99.90;;;;;;5073303;28;20688;-51
2023/05/26 11:56:10;;;;;;;21.00;9.15;;;;;;;;;;5072087;28;20174;-51
2023/05/26 11:58:37;;;;;;;21.08;7.90;;;;;;;;;;5072807;28;20614;-48
2023/05/26 12:01:05;;;;;;;22.00;7.68;;;20.60;99.90;;;;;;5073569;28;20662;-52
2023/05/26 12:03:36;;;;;;;19.58;7.47;;;20.60;99.90;;;;;;5073754;28;20205;-53
2023/05/26 12:06:30;;;;;;;19.42;7.82;;;20.60;99.90;;;;;;5073337;28;20930;-52
2023/05/26 12:08:58;;;;;;;26.85;8.57;;;20.80;99.90;;;;;;5071357;28;20209;-50
2023/05/26 12:11:33;;;;;;;21.88;8.05;;;20.30;99.90;;;;;;5073108;28;20198;-52
2023/05/26 12:14:04;;;;;;;26.55;8.55;;;20.10;99.90;;;;;;5072906;28;20547;-52
2023/05/26 12:16:35;;;;;;;22.75;8.40;;;20.50;99.90;;;;;;5073181;28;20182;-52
2023/05/26 12:19:06;;;;;;;21.70;8.10;;;20.50;99.90;;;;;;5071878;28;20229;-52
2023/05/26 12:21:38;;;;;;;21.23;8.27;;;20.90;99.90;;;;;;5073333;28;20165;-47
2023/05/26 12:24:04;;;;;;;16.42;6.90;;;;;;;;;;5072981;28;20177;-50
2023/05/26 12:26:30;;;;;;;23.67;7.75;;;20.20;99.90;;;;;;5072927;28;20162;-52
2023/05/26 12:29:13;;;;;;;24.02;7.45;;;20.40;99.90;;;;;;5072785;28;20219;-51
2023/05/26 12:31:50;;;;;;;20.63;7.20;;;20.50;99.90;;;;;;5072385;28;20185;-51
2023/05/26 12:34:25;;;;;;;19.48;6.03;;;20.80;99.90;;;;;;5072495;28;20176;-53
2023/05/26 12:36:51;;;;;;;25.70;7.82;;;;;;;;;;5071034;28;20169;-51
2023/05/26 12:39:18;;;;;;;19.60;8.07;;;20.60;99.90;;;;;;5072387;28;20233;-48
2023/05/26 12:41:47;;;;;;;20.33;7.60;;;;;;;;;;5072576;28;20679;-52
2023/05/26 12:44:14;;;;;;;21.92;7.82;;;;;;;;;;5072569;28;20505;-52
2023/05/26 12:46:41;;;;;;;19.98;6.53;;;;;;;;;;5072482;28;20528;-51
2023/05/26 12:49:07;;;;;;;20.77;6.68;;;20.70;99.90;;;;;;5072302;28;20268;-51
2023/05/26 12:51:34;;;;;;;17.73;6.43;;;20.60;99.90;;;;;;5072906;28;20218;-51
2023/05/26 12:54:00;;;;;;;23.95;7.25;;;;;;;;;;5072734;28;20205;-48
2023/05/26 12:56:26;;;;;;;17.73;6.25;;;;;;;;;;5072498;28;20892;-48
2023/05/26 12:58:52;;;;;;;23.05;6.88;;;21.20;99.90;;;;;;5070836;28;20351;-48
2023/05/26 13:01:18;;;;;;;21.60;7.85;;;;;;;;;;5070704;28;20158;-49